createdAt,value
2022-09-26T00:01:08.157Z,92.42
2022-09-26T00:03:35.490Z,92.85
2022-09-26T00:06:03.838Z,93.03
2022-09-26T00:08:30.408Z,93.47
2022-09-26T00:11:01.545Z,93.44
2022-09-26T00:13:29.853Z,92.85
2022-09-26T00:15:57.477Z,93.43
2022-09-26T00:18:24.544Z,93.22
2022-09-26T00:20:51.486Z,92.97
2022-09-26T00:23:18.082Z,92.93
2022-09-26T00:25:52.055Z,92.90
2022-09-26T00:28:19.302Z,93.16
2022-09-26T00:30:45.790Z,92.91
2022-09-26T00:33:12.366Z,92.85
2022-09-26T00:35:39.271Z,93.13
2022-09-26T00:38:05.717Z,93.80
2022-09-26T00:40:32.994Z,93.74
2022-09-26T00:42:59.480Z,93.92
2022-09-26T00:45:30.455Z,93.44
2022-09-26T00:48:04.095Z,93.33
2022-09-26T00:50:40.407Z,93.41
2022-09-26T00:53:06.738Z,93.50
2022-09-26T00:55:37.629Z,93.51
2022-09-26T00:58:09.370Z,93.59
2022-09-26T01:00:37.558Z,93.80
2022-09-26T01:03:04.085Z,93.88
2022-09-26T01:05:31.621Z,94.09
2022-09-26T01:07:58.979Z,94.15
2022-09-26T01:10:26.738Z,94.22
2022-09-26T01:12:53.710Z,94.39
2022-09-26T01:15:20.220Z,94.45
2022-09-26T01:17:46.804Z,95.21
2022-09-26T01:20:28.553Z,95.29
2022-09-26T01:23:06.731Z,95.56
2022-09-26T01:25:39.789Z,95.58
2022-09-26T01:28:30.760Z,95.57
2022-09-26T01:31:08.834Z,96.10
2022-09-26T01:34:11.503Z,95.83
2022-09-26T01:36:53.901Z,96.20
2022-09-26T01:39:28.550Z,97.31
2022-09-26T01:42:16.034Z,96.34
2022-09-26T01:45:06.394Z,96.98
2022-09-26T01:48:00.748Z,96.65
2022-09-26T01:50:53.113Z,96.82
2022-09-26T01:53:25.014Z,96.89
2022-09-26T01:56:11.658Z,96.89
2022-09-26T01:58:59.854Z,96.85
2022-09-26T02:01:29.488Z,96.79
2022-09-26T02:04:01.328Z,96.69
2022-09-26T02:06:35.973Z,96.43
2022-09-26T02:09:13.240Z,96.30
2022-09-26T02:11:42.674Z,96.28
2022-09-26T02:14:15.545Z,95.93
2022-09-26T02:16:47.233Z,95.92
2022-09-26T02:19:20.151Z,96.00
2022-09-26T02:21:47.373Z,95.75
2022-09-26T02:24:14.381Z,95.96
2022-09-26T02:26:42.306Z,95.73
2022-09-26T02:29:11.897Z,95.85
2022-09-26T02:31:44.061Z,95.57
2022-09-26T02:34:10.660Z,95.63
2022-09-26T02:36:38.268Z,95.60
2022-09-26T02:39:04.728Z,95.53
2022-09-26T02:41:47.488Z,95.31
2022-09-26T02:44:23.386Z,95.46
2022-09-26T02:47:15.692Z,95.30
2022-09-26T02:50:16.783Z,95.68
2022-09-26T02:53:17.101Z,95.54
2022-09-26T02:56:03.362Z,95.62
2022-09-26T02:58:54.408Z,96.05
2022-09-26T03:01:31.037Z,96.20
2022-09-26T03:04:04.749Z,96.11
2022-09-26T03:06:36.987Z,96.30
2022-09-26T03:09:05.778Z,96.38
2022-09-26T03:11:33.725Z,96.75
2022-09-26T03:14:00.784Z,96.53
2022-09-26T03:16:34.130Z,96.43
2022-09-26T03:19:13.041Z,96.31
2022-09-26T03:21:39.576Z,96.22
2022-09-26T03:24:06.170Z,96.44
2022-09-26T03:26:33.144Z,96.51
2022-09-26T03:29:00.016Z,96.52
2022-09-26T03:31:27.135Z,96.69
2022-09-26T03:33:54.020Z,96.62
2022-09-26T03:36:23.966Z,96.91
2022-09-26T03:38:50.398Z,96.77
2022-09-26T03:41:16.819Z,96.92
2022-09-26T03:43:43.833Z,96.98
2022-09-26T03:46:12.282Z,97.10
2022-09-26T03:48:39.410Z,97.11
2022-09-26T03:51:09.510Z,97.14
2022-09-26T03:53:38.332Z,97.17
2022-09-26T03:56:12.957Z,97.30
2022-09-26T03:58:39.626Z,97.41
2022-09-26T04:01:11.852Z,97.37
2022-09-26T04:03:40.255Z,97.29
2022-09-26T04:06:08.803Z,97.10
2022-09-26T04:08:37.478Z,97.31
2022-09-26T04:11:06.384Z,97.34
2022-09-26T04:13:50.585Z,97.25
2022-09-26T04:16:20.152Z,97.52
2022-09-26T04:18:47.031Z,97.49
2022-09-26T04:21:16.709Z,97.64
2022-09-26T04:23:44.188Z,97.76
2022-09-26T04:26:22.935Z,97.95
2022-09-26T04:28:55.392Z,97.57
2022-09-26T04:31:23.414Z,97.52
2022-09-26T04:33:50.934Z,97.42
2022-09-26T04:36:18.079Z,97.49
2022-09-26T04:38:44.564Z,97.36
2022-09-26T04:41:13.620Z,97.50
2022-09-26T04:43:41.013Z,97.47
2022-09-26T04:46:10.154Z,97.95
2022-09-26T04:48:36.711Z,97.60
2022-09-26T04:51:14.797Z,97.70
2022-09-26T04:53:41.801Z,97.53
2022-09-26T04:56:10.946Z,97.45
2022-09-26T04:58:38.859Z,97.54
2022-09-26T05:01:07.193Z,97.69
2022-09-26T05:03:33.616Z,97.78
2022-09-26T05:06:00.018Z,98.22
2022-09-26T05:08:26.928Z,97.97
2022-09-26T05:10:55.192Z,98.17
2022-09-26T05:13:25.979Z,98.15
2022-09-26T05:15:56.011Z,98.40
2022-09-26T05:18:24.897Z,98.27
2022-09-26T05:20:52.178Z,98.19
2022-09-26T05:23:44.390Z,98.39
2022-09-26T05:26:19.862Z,98.22
2022-09-26T05:29:06.957Z,98.34
2022-09-26T05:31:38.008Z,98.41
2022-09-26T05:34:18.386Z,98.44
2022-09-26T05:36:45.782Z,98.33
2022-09-26T05:39:30.606Z,98.35
2022-09-26T05:41:58.846Z,98.52
2022-09-26T05:44:25.758Z,98.51
2022-09-26T05:46:52.218Z,98.47
2022-09-26T05:49:18.737Z,98.61
2022-09-26T05:51:45.200Z,98.44
2022-09-26T05:54:11.585Z,98.57
2022-09-26T05:56:37.989Z,98.43
2022-09-26T05:59:05.518Z,98.36
2022-09-26T06:01:34.026Z,98.53
2022-09-26T06:04:02.764Z,98.57
2022-09-26T06:06:29.933Z,98.39
2022-09-26T06:08:56.390Z,98.24
2022-09-26T06:11:24.931Z,98.19
2022-09-26T06:13:51.322Z,98.15
2022-09-26T06:16:20.684Z,98.05
2022-09-26T06:18:49.152Z,98.22
2022-09-26T06:21:17.566Z,98.07
2022-09-26T06:23:44.954Z,97.85
2022-09-26T06:26:23.476Z,97.67
2022-09-26T06:28:54.867Z,97.69
2022-09-26T06:31:22.009Z,97.42
2022-09-26T06:33:53.226Z,97.20
2022-09-26T06:36:21.798Z,97.04
2022-09-26T06:38:48.960Z,96.83
2022-09-26T06:41:16.362Z,96.43
2022-09-26T06:43:45.160Z,96.27
2022-09-26T06:46:12.899Z,95.53
2022-09-26T06:48:39.315Z,94.09
2022-09-26T06:51:05.999Z,93.39
2022-09-26T06:53:34.747Z,92.63
2022-09-26T06:56:01.740Z,92.39
2022-09-26T06:58:28.142Z,92.07
2022-09-26T07:00:54.608Z,90.26
2022-09-26T07:03:22.043Z,90.77
2022-09-26T07:05:48.543Z,89.92
2022-09-26T07:08:14.967Z,89.81
2022-09-26T07:10:41.354Z,89.65
2022-09-26T07:13:09.421Z,88.74
2022-09-26T07:15:37.505Z,88.46
2022-09-26T07:18:06.402Z,88.00
2022-09-26T07:20:37.442Z,87.82
2022-09-26T07:23:05.452Z,86.87
2022-09-26T07:25:33.246Z,85.00
2022-09-26T07:28:00.305Z,80.50
2022-09-26T07:30:28.193Z,77.66
2022-09-26T07:33:00.567Z,75.19
2022-09-26T07:35:27.273Z,69.94
2022-09-26T07:37:53.707Z,69.07
2022-09-26T07:40:21.106Z,64.78
2022-09-26T07:43:09.350Z,63.87
2022-09-26T07:45:52.874Z,67.08
2022-09-26T07:48:37.723Z,68.54
2022-09-26T07:51:09.009Z,66.98
2022-09-26T07:53:36.637Z,64.51
2022-09-26T07:56:05.787Z,67.13
2022-09-26T07:58:33.722Z,68.30
2022-09-26T08:01:00.070Z,68.61
2022-09-26T08:03:29.469Z,66.55
2022-09-26T08:05:58.478Z,63.79
2022-09-26T08:08:25.148Z,60.19
2022-09-26T08:10:51.604Z,58.67
2022-09-26T08:13:18.245Z,56.40
2022-09-26T08:15:44.653Z,59.14
2022-09-26T08:18:11.073Z,55.80
2022-09-26T08:20:38.100Z,53.75
2022-09-26T08:23:04.565Z,50.69
2022-09-26T08:25:30.913Z,47.71
2022-09-26T08:27:59.483Z,45.30
2022-09-26T08:30:28.534Z,45.47
2022-09-26T08:32:58.987Z,44.95
2022-09-26T08:35:26.143Z,44.82
2022-09-26T08:37:52.698Z,48.57
2022-09-26T08:40:27.274Z,44.99
2022-09-26T08:43:04.314Z,49.67
2022-09-26T08:46:09.747Z,48.45
2022-09-26T08:48:51.860Z,46.15
2022-09-26T08:51:32.402Z,44.00
2022-09-26T08:54:09.690Z,45.54
2022-09-26T08:56:41.062Z,47.78
2022-09-26T08:59:13.988Z,47.34
2022-09-26T09:01:43.262Z,46.90
2022-09-26T09:04:15.377Z,42.97
2022-09-26T09:06:43.859Z,44.70
2022-09-26T09:09:15.715Z,44.36
2022-09-26T09:12:23.694Z,41.79
2022-09-26T09:15:39.714Z,39.39
2022-09-26T09:18:31.476Z,41.42
2022-09-26T09:21:10.179Z,45.85
2022-09-26T09:23:50.338Z,43.94
2022-09-26T09:29:26.693Z,37.89
2022-09-26T09:31:54.578Z,37.06
2022-09-26T09:34:34.579Z,37.93
2022-09-26T09:37:10.974Z,38.61
2022-09-26T09:39:42.123Z,36.30
2022-09-26T09:42:27.500Z,36.19
2022-09-26T09:45:19.849Z,39.54
2022-09-26T09:47:46.594Z,42.47
2022-09-26T09:50:30.448Z,42.69
2022-09-26T09:53:18.484Z,42.81
2022-09-26T09:56:12.753Z,45.88
2022-09-26T09:59:15.615Z,46.81
2022-09-26T10:01:45.201Z,47.60
2022-09-26T10:04:29.659Z,46.64
2022-09-26T10:06:56.148Z,46.54
2022-09-26T10:09:36.024Z,48.35
2022-09-26T10:12:16.159Z,49.41
2022-09-26T10:14:56.614Z,49.23
2022-09-26T10:17:23.897Z,51.45
2022-09-26T10:19:50.612Z,50.15
2022-09-26T10:22:25.928Z,50.44
2022-09-26T10:24:59.758Z,46.02
2022-09-26T10:27:40.757Z,47.13
2022-09-26T10:30:19.220Z,47.89
2022-09-26T10:32:56.395Z,48.83
2022-09-26T10:35:44.567Z,50.47
2022-09-26T10:38:22.852Z,50.72
2022-09-26T10:41:03.511Z,51.54
2022-09-26T10:43:32.753Z,50.20
2022-09-26T10:46:15.047Z,51.09
2022-09-26T10:48:51.776Z,51.77
2022-09-26T10:51:37.253Z,52.13
2022-09-26T10:54:19.141Z,52.96
2022-09-26T10:56:54.158Z,53.17
2022-09-26T10:59:26.661Z,53.53
2022-09-26T11:02:03.684Z,54.63
2022-09-26T11:04:52.149Z,54.25
2022-09-26T11:07:24.747Z,54.81
2022-09-26T11:09:59.981Z,54.50
2022-09-26T11:12:29.105Z,54.44
2022-09-26T11:15:15.884Z,55.16
2022-09-26T11:17:48.036Z,54.00
2022-09-26T11:20:27.187Z,54.37
2022-09-26T11:23:12.206Z,54.58
2022-09-26T11:25:57.977Z,55.11
2022-09-26T11:28:49.169Z,53.73
2022-09-26T11:31:26.634Z,52.13
2022-09-26T11:33:54.032Z,51.93
2022-09-26T11:37:00.705Z,52.34
2022-09-26T11:39:36.246Z,52.11
2022-09-26T11:42:07.074Z,52.84
2022-09-26T11:44:33.405Z,55.03
2022-09-26T11:47:21.733Z,54.46
2022-09-26T11:50:10.966Z,54.96
2022-09-26T11:53:01.519Z,54.86
2022-09-26T11:55:39.434Z,55.55
2022-09-26T11:58:39.905Z,56.16
2022-09-26T12:01:27.810Z,56.03
2022-09-26T12:04:27.192Z,51.61
2022-09-26T12:07:17.908Z,51.13
2022-09-26T12:10:09.600Z,51.98
2022-09-26T12:12:56.536Z,56.32
2022-09-26T12:15:33.395Z,58.08
2022-09-26T12:18:27.342Z,54.81
2022-09-26T12:21:29.000Z,55.01
2022-09-26T12:24:22.470Z,58.22
2022-09-26T12:27:06.689Z,55.45
2022-09-26T12:29:55.218Z,53.87
2022-09-26T12:33:00.290Z,55.67
2022-09-26T12:35:37.692Z,54.87
2022-09-26T12:38:07.350Z,57.63
2022-09-26T12:40:36.968Z,54.52
2022-09-26T12:43:42.005Z,54.11
2022-09-26T12:46:34.948Z,54.21
2022-09-26T12:49:25.372Z,54.58
2022-09-26T12:51:55.075Z,53.66
2022-09-26T12:54:40.225Z,54.14
2022-09-26T12:57:38.479Z,52.50
2022-09-26T13:00:18.534Z,55.05
2022-09-26T13:03:16.572Z,53.92
2022-09-26T13:06:06.286Z,55.63
2022-09-26T13:09:12.038Z,53.48
2022-09-26T13:12:08.169Z,54.27
2022-09-26T13:15:15.208Z,52.18
2022-09-26T13:17:47.036Z,53.94
2022-09-26T13:20:27.225Z,50.39
2022-09-26T13:23:06.578Z,50.27
2022-09-26T13:25:50.722Z,53.14
2022-09-26T13:28:33.727Z,54.58
2022-09-26T13:31:05.919Z,53.71
2022-09-26T13:33:40.167Z,56.12
2022-09-26T13:36:09.595Z,53.64
2022-09-26T13:38:45.891Z,53.36
2022-09-26T13:41:49.879Z,51.86
2022-09-26T13:44:55.758Z,52.13
2022-09-26T13:47:37.823Z,50.67
2022-09-26T13:50:23.574Z,49.53
2022-09-26T13:53:18.669Z,51.35
2022-09-26T13:55:45.089Z,55.58
2022-09-26T13:58:22.441Z,52.34
2022-09-26T14:00:52.379Z,53.99
2022-09-26T14:03:22.984Z,52.81
2022-09-26T14:05:52.495Z,55.98
2022-09-26T14:08:43.685Z,52.64
2022-09-26T14:11:30.359Z,53.93
2022-09-26T14:14:17.096Z,53.56
2022-09-26T14:17:23.921Z,53.14
2022-09-26T14:19:57.154Z,53.32
2022-09-26T14:22:35.230Z,52.02
2022-09-26T14:25:02.479Z,51.13
2022-09-26T14:27:37.866Z,50.49
2022-09-26T14:30:30.425Z,52.92
2022-09-26T14:33:03.328Z,55.50
2022-09-26T14:35:33.356Z,53.36
2022-09-26T14:38:14.865Z,56.42
2022-09-26T14:40:54.319Z,54.37
2022-09-26T14:43:24.290Z,56.04
2022-09-26T14:46:17.615Z,54.39
2022-09-26T14:48:44.960Z,55.94
2022-09-26T14:51:11.326Z,59.33
2022-09-26T14:53:48.326Z,57.14
2022-09-26T14:56:41.193Z,57.90
2022-09-26T14:59:16.478Z,60.29
2022-09-26T15:01:46.747Z,58.25
2022-09-26T15:04:23.821Z,56.34
2022-09-26T15:07:16.242Z,54.72
2022-09-26T15:09:47.605Z,52.85
2022-09-26T15:12:19.799Z,55.03
2022-09-26T15:15:08.934Z,52.93
2022-09-26T15:17:41.543Z,53.87
2022-09-26T15:20:15.747Z,54.61
2022-09-26T15:22:43.138Z,54.02
2022-09-26T15:25:20.267Z,52.66
2022-09-26T15:27:50.326Z,52.59
2022-09-26T15:30:20.033Z,53.22
2022-09-26T15:32:50.313Z,52.96
2022-09-26T15:35:16.917Z,53.19
2022-09-26T15:37:43.625Z,53.51
2022-09-26T15:40:16.889Z,55.25
2022-09-26T15:42:58.762Z,54.14
2022-09-26T15:45:30.052Z,58.22
2022-09-26T15:47:59.118Z,58.95
2022-09-26T15:50:29.815Z,59.31
2022-09-26T15:53:03.822Z,58.30
2022-09-26T15:55:50.527Z,57.71
2022-09-26T15:58:21.693Z,58.44
2022-09-26T16:00:51.595Z,58.18
2022-09-26T16:03:27.347Z,59.14
2022-09-26T16:05:54.884Z,61.40
2022-09-26T16:08:25.214Z,60.49
2022-09-26T16:11:01.876Z,60.48
2022-09-26T16:13:35.818Z,61.60
2022-09-26T16:16:06.093Z,61.26
2022-09-26T16:18:52.438Z,61.84
2022-09-26T16:21:21.864Z,63.17
2022-09-26T16:23:56.440Z,63.82
2022-09-26T16:26:40.085Z,65.58
2022-09-26T16:29:08.376Z,63.65
2022-09-26T16:31:52.706Z,68.17
2022-09-26T16:34:26.019Z,66.66
2022-09-26T16:36:53.298Z,67.70
2022-09-26T16:39:28.769Z,69.18
2022-09-26T16:42:12.760Z,70.38
2022-09-26T16:44:41.396Z,67.02
2022-09-26T16:47:47.643Z,68.15
2022-09-26T16:50:27.304Z,71.40
2022-09-26T16:52:54.926Z,73.04
2022-09-26T16:55:22.912Z,73.20
2022-09-26T16:57:54.448Z,71.73
2022-09-26T17:00:42.818Z,71.91
2022-09-26T17:03:31.626Z,74.12
2022-09-26T17:05:59.927Z,74.24
2022-09-26T17:08:27.624Z,74.89
2022-09-26T17:10:56.267Z,74.64
2022-09-26T17:13:25.027Z,72.21
2022-09-26T17:15:57.445Z,74.56
2022-09-26T17:18:29.508Z,75.57
2022-09-26T17:20:57.030Z,75.47
2022-09-26T17:23:39.447Z,75.59
2022-09-26T17:26:07.759Z,76.24
2022-09-26T17:28:39.268Z,73.12
2022-09-26T17:31:08.063Z,75.21
2022-09-26T17:33:40.482Z,76.19
2022-09-26T17:36:10.865Z,77.11
2022-09-26T17:38:41.129Z,76.83
2022-09-26T17:41:12.424Z,77.37
2022-09-26T17:43:38.944Z,77.20
2022-09-26T17:46:06.312Z,77.14
2022-09-26T17:48:33.348Z,77.63
2022-09-26T17:51:02.112Z,77.93
2022-09-26T17:53:37.068Z,78.02
2022-09-26T17:56:07.782Z,78.78
2022-09-26T17:58:36.937Z,78.91
2022-09-26T18:01:04.595Z,78.33
2022-09-26T18:03:34.379Z,79.20
2022-09-26T18:06:01.473Z,78.88
2022-09-26T18:08:36.456Z,78.85
2022-09-26T18:11:05.266Z,78.52
2022-09-26T18:13:34.703Z,78.73
2022-09-26T18:16:01.551Z,78.93
2022-09-26T18:18:29.921Z,78.77
2022-09-26T18:20:58.694Z,74.39
2022-09-26T18:23:29.044Z,77.23
2022-09-26T18:26:00.924Z,77.84
2022-09-26T18:28:27.841Z,74.12
2022-09-26T18:30:58.578Z,76.49
2022-09-26T18:33:27.803Z,75.87
2022-09-26T18:35:55.321Z,76.58
2022-09-26T18:38:22.237Z,74.56
2022-09-26T18:40:58.758Z,75.78
2022-09-26T18:43:29.410Z,74.76
2022-09-26T18:45:57.524Z,75.14
2022-09-26T18:48:26.014Z,73.83
2022-09-26T18:50:53.841Z,72.78
2022-09-26T18:53:22.514Z,74.04
2022-09-26T18:56:07.692Z,70.73
2022-09-26T18:58:34.798Z,69.52
2022-09-26T19:01:25.313Z,69.48
2022-09-26T19:03:52.077Z,68.70
2022-09-26T19:06:23.750Z,69.10
2022-09-26T19:08:56.632Z,68.98
2022-09-26T19:11:24.949Z,68.46
2022-09-26T19:13:54.191Z,68.63
2022-09-26T19:16:21.610Z,68.02
2022-09-26T19:18:48.303Z,68.06
2022-09-26T19:21:24.266Z,68.18
2022-09-26T19:23:51.510Z,69.22
2022-09-26T19:26:32.434Z,67.72
2022-09-26T19:28:59.516Z,68.23
2022-09-26T19:31:26.645Z,68.32
2022-09-26T19:33:53.755Z,68.45
2022-09-26T19:36:20.846Z,68.67
2022-09-26T19:38:47.617Z,68.26
2022-09-26T19:41:14.171Z,68.75
2022-09-26T19:43:40.654Z,69.20
2022-09-26T19:46:13.217Z,68.71
2022-09-26T19:48:42.277Z,68.77
2022-09-26T19:51:16.775Z,68.94
2022-09-26T19:53:43.289Z,68.16
2022-09-26T19:56:09.816Z,69.70
2022-09-26T19:58:36.496Z,69.42
2022-09-26T20:01:14.217Z,69.36
2022-09-26T20:03:41.782Z,69.69
2022-09-26T20:06:15.132Z,70.02
2022-09-26T20:08:41.702Z,71.52
2022-09-26T20:11:09.290Z,71.25
2022-09-26T20:13:55.934Z,71.37
2022-09-26T20:16:23.125Z,70.68
2022-09-26T20:18:51.166Z,73.30
2022-09-26T20:21:22.442Z,71.15
2022-09-26T20:23:48.925Z,73.66
2022-09-26T20:26:17.227Z,73.75
2022-09-26T20:28:44.100Z,71.07
2022-09-26T20:31:23.513Z,72.87
2022-09-26T20:33:51.291Z,72.84
2022-09-26T20:36:24.804Z,72.73
2022-09-26T20:38:55.643Z,74.45
2022-09-26T20:41:26.001Z,72.21
2022-09-26T20:44:01.620Z,71.56
2022-09-26T20:46:37.331Z,75.46
2022-09-26T20:49:07.538Z,72.79
2022-09-26T20:51:35.034Z,72.48
2022-09-26T20:54:02.310Z,75.35
2022-09-26T20:56:29.115Z,74.91
2022-09-26T20:58:55.513Z,75.01
2022-09-26T21:01:22.445Z,75.24
2022-09-26T21:03:51.994Z,74.68
2022-09-26T21:06:21.105Z,72.30
2022-09-26T21:08:48.185Z,73.43
2022-09-26T21:11:18.649Z,72.42
2022-09-26T21:13:45.428Z,72.77
2022-09-26T21:16:13.983Z,71.18
2022-09-26T21:18:42.722Z,72.51
2022-09-26T21:21:22.632Z,72.16
2022-09-26T21:23:49.650Z,73.34
2022-09-26T21:26:19.337Z,71.79
2022-09-26T21:28:46.546Z,72.28
2022-09-26T21:31:22.193Z,73.76
2022-09-26T21:33:49.669Z,76.45
2022-09-26T21:36:17.490Z,75.25
2022-09-26T21:38:44.365Z,75.94
2022-09-26T21:41:12.323Z,75.39
2022-09-26T21:43:45.070Z,76.54
2022-09-26T21:46:11.582Z,77.01
2022-09-26T21:48:38.068Z,75.88
2022-09-26T21:51:05.038Z,77.62
2022-09-26T21:54:00.539Z,76.71
2022-09-26T21:56:31.567Z,77.33
2022-09-26T21:58:58.486Z,77.62
2022-09-26T22:01:24.990Z,78.21
2022-09-26T22:03:51.470Z,79.24
2022-09-26T22:06:17.917Z,79.46
2022-09-26T22:08:44.338Z,80.48
2022-09-26T22:11:11.028Z,80.81
2022-09-26T22:13:38.128Z,80.99
2022-09-26T22:16:06.608Z,80.23
2022-09-26T22:18:38.895Z,79.32
2022-09-26T22:21:07.279Z,79.74
2022-09-26T22:23:34.506Z,80.63
2022-09-26T22:26:01.655Z,80.89
2022-09-26T22:28:28.804Z,80.28
2022-09-26T22:30:55.808Z,80.20
2022-09-26T22:33:22.829Z,79.71
2022-09-26T22:35:50.360Z,80.68
2022-09-26T22:38:20.706Z,80.50
2022-09-26T22:40:59.001Z,80.12
2022-09-26T22:43:26.442Z,81.13
2022-09-26T22:45:59.805Z,81.21
2022-09-26T22:48:29.934Z,79.22
2022-09-26T22:50:56.842Z,78.86
2022-09-26T22:53:23.277Z,78.85
2022-09-26T22:55:56.374Z,78.86
2022-09-26T22:58:23.704Z,80.34
2022-09-26T23:00:50.297Z,79.82
2022-09-26T23:03:17.421Z,79.08
2022-09-26T23:05:46.086Z,79.19
2022-09-26T23:08:12.490Z,79.82
2022-09-26T23:10:38.909Z,80.42
2022-09-26T23:13:05.386Z,78.50
2022-09-26T23:15:32.438Z,79.38
2022-09-26T23:17:58.842Z,78.76
2022-09-26T23:20:25.343Z,79.00
2022-09-26T23:22:51.837Z,78.73
2022-09-26T23:25:18.244Z,79.12
2022-09-26T23:27:44.658Z,79.30
2022-09-26T23:30:11.809Z,78.79
2022-09-26T23:32:38.224Z,78.81
2022-09-26T23:35:05.173Z,79.37
2022-09-26T23:37:32.523Z,80.51
2022-09-26T23:39:58.943Z,80.67
2022-09-26T23:42:25.386Z,80.37
2022-09-26T23:44:51.774Z,79.70
2022-09-26T23:47:18.165Z,80.88
2022-09-26T23:49:44.583Z,79.44
2022-09-26T23:52:10.999Z,80.61
2022-09-26T23:54:37.448Z,81.20
2022-09-26T23:57:03.950Z,80.48
2022-09-26T23:59:30.401Z,80.15
